Time;durP1;ratioP1;P1;durP2;ratioP2;P2;SDS_P1;SDS_P2;PMS_P1;PMS_P2;Temp;Humidity;BMP_temperature;BMP_pressure;BME280_temperature;BME280_humidity;BME280_pressure;Samples;Min_cycle;Max_cycle;Signal;HPM_P1;HPM_P2
2022/01/14 00:02:18;;;;;;;48.03;23.63;;;2.90;99.90;;;;;;5089773;28;20794;-57
2022/01/14 00:04:44;;;;;;;45.50;23.60;;;1.10;99.90;;;;;;5091279;28;20382;-57
2022/01/14 00:07:09;;;;;;;42.80;23.20;;;3.00;99.90;;;;;;5091771;28;20373;-57
2022/01/14 00:09:37;;;;;;;46.93;24.30;;;1.00;99.90;;;;;;5090720;28;20422;-57
2022/01/14 00:12:10;;;;;;;42.30;23.08;;;1.10;99.90;;;;;;5091745;28;20393;-57
2022/01/14 00:14:38;;;;;;;44.75;23.92;;;1.20;99.90;;;;;;5090614;28;20389;-57
2022/01/14 00:17:07;;;;;;;44.72;23.60;;;1.30;99.90;;;;;;5091749;28;20405;-57
2022/01/14 00:19:33;;;;;;;46.85;24.30;;;1.40;99.90;;;;;;5091084;28;20422;-57
2022/01/14 00:22:04;;;;;;;48.95;25.80;;;1.40;99.90;;;;;;5091842;28;20378;-57
2022/01/14 00:31:38;;;;;;;43.20;23.45;;;1.40;99.90;;;;;;5090777;28;20378;-57
2022/01/14 00:32:52;;;;;;;44.00;23.90;;;1.40;99.90;;;;;;5070369;28;20367;-59
2022/01/14 00:35:18;;;;;;;40.33;23.02;;;3.00;99.90;;;;;;5069778;28;20402;-57
2022/01/14 00:37:43;;;;;;;41.17;22.93;;;1.30;99.90;;;;;;5070329;28;20399;-57
2022/01/14 00:40:10;;;;;;;46.88;23.33;;;1.80;99.90;;;;;;5070886;28;20721;-57
2022/01/14 00:42:36;;;;;;;40.50;21.98;;;1.10;99.90;;;;;;5070077;28;20455;-57
2022/01/14 00:45:06;;;;;;;45.10;22.17;;;1.10;99.90;;;;;;5070895;28;20521;-57
2022/01/14 00:47:34;;;;;;;42.97;22.67;;;1.20;99.90;;;;;;5070339;28;20387;-57
2022/01/14 00:50:00;;;;;;;46.80;22.92;;;3.10;99.90;;;;;;5069700;28;20406;-57
2022/01/14 00:52:26;;;;;;;38.90;21.70;;;1.20;99.90;;;;;;5070770;28;20372;-56
2022/01/14 00:54:51;;;;;;;49.58;23.48;;;1.30;99.90;;;;;;5070302;28;20386;-57
2022/01/14 00:57:29;;;;;;;42.53;22.37;;;1.20;99.90;;;;;;5076113;28;20485;-58
2022/01/14 00:59:54;;;;;;;43.78;22.45;;;2.10;99.90;;;;;;5082652;28;20721;-57
2022/01/14 01:02:20;;;;;;;41.43;22.27;;;1.20;99.90;;;;;;5070816;28;20387;-57
2022/01/14 01:04:48;;;;;;;42.17;22.50;;;1.20;99.90;;;;;;5069931;28;20388;-57
2022/01/14 01:07:14;;;;;;;42.55;22.05;;;2.90;99.90;;;;;;5070528;28;20380;-57
2022/01/14 01:09:46;;;;;;;42.53;21.27;;;2.70;99.90;;;;;;5069717;28;20405;-57
2022/01/14 01:12:30;;;;;;;43.42;23.15;;;1.10;99.90;;;;;;5070365;28;20706;-57
2022/01/14 01:15:06;;;;;;;41.75;22.05;;;1.10;99.90;;;;;;5069972;28;20918;-57
2022/01/14 01:17:33;;;;;;;41.08;21.52;;;1.10;99.90;;;;;;5069648;28;20470;-57
2022/01/14 01:20:00;;;;;;;47.42;23.45;;;1.10;99.90;;;;;;5070256;28;20419;-57
2022/01/14 01:22:26;;;;;;;45.97;24.10;;;2.70;99.90;;;;;;5070388;28;20448;-57
2022/01/14 01:24:52;;;;;;;41.90;22.35;;;1.20;99.90;;;;;;5071313;28;20460;-57
2022/01/14 01:27:20;;;;;;;39.53;21.83;;;2.60;99.90;;;;;;5077648;28;20411;-57
2022/01/14 01:30:11;;;;;;;39.75;22.33;;;2.20;99.90;;;;;;5081139;28;20366;-57
2022/01/14 01:32:37;;;;;;;42.43;22.53;;;1.20;99.90;;;;;;5084493;28;20394;-57
2022/01/14 01:35:03;;;;;;;44.20;22.45;;;1.20;99.90;;;;;;5070333;28;20529;-57
2022/01/14 01:37:29;;;;;;;45.58;25.20;;;1.10;99.90;;;;;;5069462;28;20944;-56
2022/01/14 01:39:54;;;;;;;47.30;24.60;;;1.00;99.90;;;;;;5102266;28;20873;-57
2022/01/14 01:42:26;;;;;;;49.10;25.93;;;1.00;99.90;;;;;;5070011;28;20841;-57
2022/01/14 01:44:52;;;;;;;45.20;25.30;;;0.90;99.90;;;;;;5069137;28;20403;-57
2022/01/14 01:47:20;;;;;;;44.37;24.57;;;0.90;99.90;;;;;;5069546;28;20391;-57
2022/01/14 01:49:46;;;;;;;48.70;26.63;;;1.00;99.90;;;;;;5069155;28;21281;-57
2022/01/14 01:52:12;;;;;;;46.47;27.03;;;1.60;99.90;;;;;;5069166;28;20479;-57
2022/01/14 01:54:37;;;;;;;47.95;26.08;;;1.00;99.90;;;;;;5068378;28;20396;-57
2022/01/14 01:57:03;;;;;;;49.03;27.70;;;1.90;99.90;;;;;;5067913;28;20415;-57
2022/01/14 01:59:29;;;;;;;44.72;26.52;;;1.00;99.90;;;;;;5068765;28;20427;-56
2022/01/14 02:01:59;;;;;;;48.67;26.77;;;1.00;99.90;;;;;;5072906;28;20398;-57
2022/01/14 02:04:26;;;;;;;45.47;26.17;;;2.10;99.90;;;;;;5075267;28;20376;-58
2022/01/14 02:06:53;;;;;;;43.15;25.45;;;0.80;99.90;;;;;;5085417;28;20591;-57
2022/01/14 02:09:19;;;;;;;47.45;26.70;;;0.80;99.90;;;;;;5080140;28;20368;-57
2022/01/14 02:11:45;;;;;;;46.13;26.47;;;0.80;99.90;;;;;;5068806;28;20380;-57
2022/01/14 02:14:26;;;;;;;45.50;25.27;;;1.80;99.90;;;;;;5069608;28;20741;-57
2022/01/14 02:17:29;;;;;;;46.15;26.30;;;0.70;99.90;;;;;;5077756;28;20564;-57
2022/01/14 02:23:00;;;;;;;52.92;27.05;;;0.70;99.90;;;;;;5081279;28;20375;-57
2022/01/14 02:25:29;;;;;;;46.95;26.73;;;0.70;99.90;;;;;;5068906;28;20387;-58
2022/01/14 02:28:01;;;;;;;46.63;26.30;;;1.90;99.90;;;;;;5068730;28;20812;-57
2022/01/14 02:30:29;;;;;;;48.45;27.00;;;0.70;99.90;;;;;;5069542;28;20373;-57
2022/01/14 02:32:55;;;;;;;46.80;26.67;;;2.00;99.90;;;;;;5069212;28;20386;-57
2022/01/14 02:35:20;;;;;;;47.20;27.00;;;1.80;99.90;;;;;;5069325;28;20372;-57
2022/01/14 02:37:46;;;;;;;50.50;26.03;;;2.70;99.90;;;;;;5068261;28;20884;-57
2022/01/14 02:40:12;;;;;;;44.85;25.35;;;1.80;99.90;;;;;;5069632;28;20415;-58
2022/01/14 02:42:38;;;;;;;49.10;26.45;;;0.60;99.90;;;;;;5068530;28;20419;-57
2022/01/14 02:45:07;;;;;;;51.00;27.17;;;0.60;99.90;;;;;;5069263;28;20981;-58
2022/01/14 02:47:33;;;;;;;49.70;26.63;;;0.60;99.90;;;;;;5068546;28;20395;-57
2022/01/14 02:49:59;;;;;;;47.70;26.05;;;0.60;99.90;;;;;;5069227;28;20372;-57
2022/01/14 02:55:29;;;;;;;46.97;26.60;;;0.70;99.90;;;;;;5067368;28;20813;-57
2022/01/14 02:57:57;;;;;;;46.58;27.70;;;0.70;99.90;;;;;;5107246;27;20420;-57
2022/01/14 03:00:31;;;;;;;46.75;28.05;;;0.80;99.90;;;;;;5083169;28;20412;-57
2022/01/14 03:02:59;;;;;;;48.13;26.83;;;0.90;99.90;;;;;;5086491;28;20893;-57
2022/01/14 03:05:26;;;;;;;47.28;26.80;;;0.80;99.90;;;;;;5088990;28;20473;-57
2022/01/14 03:07:52;;;;;;;50.25;27.25;;;0.70;99.90;;;;;;5088538;28;20385;-57
2022/01/14 03:10:19;;;;;;;49.00;26.85;;;2.00;99.90;;;;;;5089075;28;20400;-57
2022/01/14 03:12:45;;;;;;;48.25;27.73;;;2.70;99.90;;;;;;5088384;28;20393;-57
2022/01/14 03:15:12;;;;;;;47.05;26.38;;;1.10;99.90;;;;;;5088868;28;20405;-57
2022/01/14 03:17:38;;;;;;;44.78;27.20;;;2.80;99.90;;;;;;5088188;28;20413;-57
2022/01/14 03:20:07;;;;;;;53.92;27.63;;;1.80;99.90;;;;;;5088996;28;20382;-57
2022/01/14 03:22:36;;;;;;;49.85;27.70;;;0.70;99.90;;;;;;5088320;28;20439;-56
2022/01/14 03:27:48;;;;;;;46.05;26.60;;;0.70;99.90;;;;;;5088243;28;20439;-57
2022/01/14 03:30:13;;;;;;;47.63;26.70;;;0.60;99.90;;;;;;5088801;28;20494;-57
2022/01/14 03:32:40;;;;;;;51.70;28.30;;;0.60;99.90;;;;;;5087926;28;20788;-57
2022/01/14 03:35:07;;;;;;;52.72;26.88;;;0.70;99.90;;;;;;5089158;28;20381;-57
2022/01/14 03:37:33;;;;;;;50.03;27.63;;;0.70;99.90;;;;;;5091374;28;20450;-56
2022/01/14 03:39:59;;;;;;;51.25;27.70;;;1.00;99.90;;;;;;5092084;28;20417;-57
2022/01/14 03:42:25;;;;;;;48.30;26.77;;;0.80;99.90;;;;;;5092668;28;20466;-58
2022/01/14 03:44:51;;;;;;;49.55;27.08;;;0.80;99.90;;;;;;5091574;28;20719;-58
2022/01/14 03:47:17;;;;;;;52.45;28.73;;;0.80;99.90;;;;;;5092321;28;20429;-57
2022/01/14 03:49:42;;;;;;;49.70;27.15;;;0.70;99.90;;;;;;5092158;28;20867;-58
2022/01/14 03:52:08;;;;;;;48.38;27.17;;;0.70;99.90;;;;;;5086301;28;20433;-58
2022/01/14 03:54:34;;;;;;;49.43;26.47;;;0.70;99.90;;;;;;5077225;28;20513;-57
2022/01/14 03:57:00;;;;;;;49.00;27.90;;;0.60;99.90;;;;;;5070799;28;20431;-58
2022/01/14 03:59:25;;;;;;;49.45;27.98;;;0.60;99.90;;;;;;5072093;28;20407;-58
2022/01/14 04:01:51;;;;;;;45.97;25.85;;;0.60;99.90;;;;;;5070931;28;21078;-58
2022/01/14 04:04:17;;;;;;;49.65;27.15;;;0.60;99.90;;;;;;5072082;28;20845;-58
2022/01/14 04:06:43;;;;;;;46.10;26.58;;;0.60;99.90;;;;;;5077056;28;20416;-58
2022/01/14 04:09:08;;;;;;;46.37;27.00;;;2.20;99.90;;;;;;5085247;28;20400;-58
2022/01/14 04:11:34;;;;;;;47.07;25.03;;;1.10;99.90;;;;;;5082224;28;20448;-57
2022/01/14 04:16:45;;;;;;;48.47;26.00;;;1.40;99.90;;;;;;5070612;28;20435;-58
2022/01/14 04:19:11;;;;;;;48.07;26.23;;;0.60;99.90;;;;;;5071337;28;20388;-58
2022/01/14 04:21:36;;;;;;;46.85;25.92;;;1.40;99.90;;;;;;5070578;28;20861;-58
2022/01/14 04:24:02;;;;;;;45.20;25.60;;;1.30;99.90;;;;;;5071500;28;20861;-58
2022/01/14 04:26:28;;;;;;;45.57;26.27;;;0.50;99.90;;;;;;5071655;28;20376;-57
2022/01/14 04:28:53;;;;;;;48.53;27.27;;;0.60;99.90;;;;;;5070531;28;20387;-58
2022/01/14 04:31:19;;;;;;;47.38;26.33;;;0.80;99.90;;;;;;5086071;28;20379;-58
2022/01/14 04:33:45;;;;;;;44.87;27.00;;;0.60;99.90;;;;;;5090518;28;20933;-58
2022/01/14 04:36:10;;;;;;;47.80;26.80;;;0.50;99.90;;;;;;5091323;28;20469;-58
2022/01/14 04:38:36;;;;;;;46.20;27.80;;;1.90;99.90;;;;;;5090517;28;20402;-58
2022/01/14 04:41:03;;;;;;;45.28;26.67;;;0.70;99.90;;;;;;5091591;28;20378;-58
2022/01/14 04:43:29;;;;;;;46.55;26.20;;;2.60;99.90;;;;;;5091021;28;20378;-58
2022/01/14 04:48:32;;;;;;;49.85;27.00;;;2.40;99.90;;;;;;5090970;28;20382;-58
2022/01/14 04:50:59;;;;;;;46.05;26.42;;;0.60;99.90;;;;;;5090960;28;20786;-58
2022/01/14 04:53:26;;;;;;;42.60;25.65;;;0.60;99.90;;;;;;5091183;28;20469;-59
2022/01/14 04:55:54;;;;;;;45.58;26.13;;;0.60;99.90;;;;;;5090422;28;20819;-58
2022/01/14 04:58:21;;;;;;;45.38;25.80;;;0.60;99.90;;;;;;5090888;28;20398;-58
2022/01/14 05:00:47;;;;;;;48.45;26.73;;;0.60;99.90;;;;;;5090238;28;20425;-58
2022/01/14 05:03:13;;;;;;;54.97;27.83;;;0.50;99.90;;;;;;5090912;28;20406;-58
2022/01/14 05:05:42;;;;;;;48.42;26.13;;;0.50;99.90;;;;;;5090280;28;20366;-58
2022/01/14 05:08:18;;;;;;;50.33;27.60;;;0.50;99.90;;;;;;5090663;28;20382;-59
2022/01/14 05:13:19;;;;;;;44.35;26.00;;;0.80;99.90;;;;;;5090871;28;20394;-58
2022/01/14 05:15:45;;;;;;;47.47;26.08;;;0.50;99.90;;;;;;5088288;28;20402;-58
2022/01/14 05:18:11;;;;;;;46.72;25.35;;;0.50;99.90;;;;;;5090638;28;20410;-58
2022/01/14 05:20:36;;;;;;;44.63;25.75;;;0.50;99.90;;;;;;5089594;28;20370;-57
2022/01/14 05:23:02;;;;;;;45.00;26.23;;;0.50;99.90;;;;;;5090384;28;20381;-58
2022/01/14 05:25:28;;;;;;;46.80;26.20;;;0.70;99.90;;;;;;5090156;28;20486;-58
2022/01/14 05:27:54;;;;;;;46.72;25.50;;;2.30;99.90;;;;;;5089407;28;20374;-58
2022/01/14 05:30:20;;;;;;;44.63;25.07;;;1.00;99.90;;;;;;5090062;28;20384;-58
2022/01/14 05:32:51;;;;;;;48.50;25.83;;;1.60;99.90;;;;;;5089844;28;20480;-58
2022/01/14 05:35:19;;;;;;;43.17;24.08;;;0.70;99.90;;;;;;5090428;28;20370;-60
2022/01/14 05:37:45;;;;;;;44.85;25.33;;;0.60;99.90;;;;;;5089515;28;20406;-58
2022/01/14 05:40:12;;;;;;;46.67;25.98;;;2.40;99.90;;;;;;5089762;28;20384;-58
2022/01/14 05:42:38;;;;;;;44.40;25.50;;;0.60;99.90;;;;;;5089295;28;20378;-58
2022/01/14 05:45:05;;;;;;;43.80;24.73;;;0.60;99.90;;;;;;5090165;28;20431;-58
2022/01/14 05:47:31;;;;;;;39.97;23.85;;;0.50;99.90;;;;;;5090180;28;20374;-58
2022/01/14 05:49:56;;;;;;;42.05;23.90;;;0.50;99.90;;;;;;5088157;28;20392;-58
2022/01/14 05:52:22;;;;;;;40.10;23.50;;;0.40;99.90;;;;;;5088554;28;20461;-58
2022/01/14 05:54:51;;;;;;;41.00;23.77;;;0.30;99.90;;;;;;5081571;28;20408;-58
2022/01/14 05:57:17;;;;;;;42.53;24.20;;;0.20;99.90;;;;;;5085493;28;21712;-58
2022/01/14 05:59:43;;;;;;;40.33;24.00;;;0.20;99.90;;;;;;5087848;28;20381;-57
2022/01/14 06:02:08;;;;;;;40.10;23.52;;;0.20;99.90;;;;;;5088880;28;20464;-58
2022/01/14 06:04:34;;;;;;;47.78;28.55;;;0.10;99.90;;;;;;5088354;28;20397;-57
2022/01/14 06:07:02;;;;;;;41.07;25.57;;;0.10;99.90;;;;;;5080704;28;20445;-58
2022/01/14 06:09:27;;;;;;;47.63;24.50;;;0.10;99.90;;;;;;5069515;28;20395;-58
2022/01/14 06:11:53;;;;;;;45.20;23.98;;;0.70;99.90;;;;;;5068250;28;20463;-58
2022/01/14 06:14:18;;;;;;;43.77;24.50;;;0.30;99.90;;;;;;5069848;28;20422;-59
2022/01/14 06:16:44;;;;;;;40.67;24.13;;;0.00;99.90;;;;;;5066483;28;20792;-56
2022/01/14 06:19:12;;;;;;;41.00;24.00;;;0.10;99.90;;;;;;5067396;28;20430;-59
2022/01/14 06:21:37;;;;;;;39.75;21.92;;;0.10;99.90;;;;;;5067117;28;20400;-57
2022/01/14 06:24:03;;;;;;;45.33;24.50;;;1.00;99.90;;;;;;5069614;28;20808;-57
2022/01/14 06:26:29;;;;;;;41.08;22.30;;;0.10;99.90;;;;;;5066929;28;20506;-58
2022/01/14 06:28:55;;;;;;;38.43;23.03;;;0.10;99.90;;;;;;5066631;28;20402;-58
2022/01/14 06:31:20;;;;;;;42.30;23.67;;;0.10;99.90;;;;;;5071387;28;20400;-58
2022/01/14 06:33:47;;;;;;;45.25;25.73;;;2.20;99.90;;;;;;5068188;28;20424;-57
2022/01/14 06:36:13;;;;;;;38.95;23.05;;;0.30;99.90;;;;;;5069183;28;20404;-57
2022/01/14 06:38:38;;;;;;;43.00;24.30;;;0.30;99.90;;;;;;5073276;28;20752;-57
2022/01/14 06:41:04;;;;;;;44.58;25.15;;;0.20;99.90;;;;;;5084179;28;20402;-58
2022/01/14 06:43:30;;;;;;;45.30;24.73;;;0.20;99.90;;;;;;5075013;28;20418;-57
2022/01/14 06:45:56;;;;;;;47.63;25.63;;;0.20;99.90;;;;;;5069604;28;21037;-57
2022/01/14 06:48:21;;;;;;;42.15;24.70;;;0.30;99.90;;;;;;5068614;28;20388;-57
2022/01/14 06:50:47;;;;;;;43.92;25.58;;;0.30;99.90;;;;;;5067736;28;20382;-57
2022/01/14 06:53:13;;;;;;;43.05;24.13;;;1.80;99.90;;;;;;5068388;28;20391;-57
2022/01/14 06:55:39;;;;;;;39.55;22.77;;;0.40;99.90;;;;;;5066165;28;20380;-57
2022/01/14 06:58:05;;;;;;;44.65;24.50;;;0.30;99.90;;;;;;5067792;28;20418;-57
2022/01/14 07:00:32;;;;;;;42.37;23.83;;;0.30;99.90;;;;;;5067285;28;20479;-57
2022/01/14 07:02:57;;;;;;;47.15;23.90;;;0.30;99.90;;;;;;5069821;28;20418;-57
2022/01/14 07:05:23;;;;;;;44.50;24.43;;;0.40;99.90;;;;;;5068755;28;20396;-57
2022/01/14 07:07:49;;;;;;;41.20;23.37;;;0.40;99.90;;;;;;5069285;28;20508;-59
2022/01/14 07:10:14;;;;;;;41.88;23.80;;;0.40;99.90;;;;;;5069173;28;20392;-57
2022/01/14 07:12:42;;;;;;;42.70;23.93;;;0.40;99.90;;;;;;5073287;28;20390;-58
2022/01/14 07:15:10;;;;;;;47.92;25.20;;;0.40;99.90;;;;;;5071991;28;20458;-56
2022/01/14 07:17:37;;;;;;;49.47;25.60;;;0.50;99.90;;;;;;5074315;28;20407;-56
2022/01/14 07:20:08;;;;;;;42.30;24.25;;;0.40;99.90;;;;;;5073448;28;20465;-57
2022/01/14 07:22:34;;;;;;;51.38;26.20;;;0.40;99.90;;;;;;5076887;28;20395;-57
2022/01/14 07:25:00;;;;;;;47.70;26.13;;;0.40;99.90;;;;;;5090435;28;20817;-57
2022/01/14 07:27:27;;;;;;;47.22;26.63;;;0.40;99.90;;;;;;5085713;28;20398;-56
2022/01/14 07:29:53;;;;;;;47.77;27.50;;;0.40;99.90;;;;;;5078713;28;20552;-57
2022/01/14 07:32:19;;;;;;;48.67;27.17;;;0.50;99.90;;;;;;5084167;28;20482;-57
2022/01/14 07:34:45;;;;;;;57.53;28.23;;;0.50;99.90;;;;;;5082708;28;20577;-56
2022/01/14 07:37:11;;;;;;;46.80;25.80;;;0.40;99.90;;;;;;5071383;28;20411;-56
2022/01/14 07:39:37;;;;;;;50.17;27.13;;;0.50;99.90;;;;;;5070840;28;20414;-55
2022/01/14 07:42:03;;;;;;;46.13;26.90;;;0.50;99.90;;;;;;5072999;28;20726;-57
2022/01/14 07:44:29;;;;;;;44.28;26.52;;;0.50;99.90;;;;;;5071984;28;20408;-57
2022/01/14 07:46:55;;;;;;;45.88;27.02;;;0.50;99.90;;;;;;5074181;28;20965;-57
2022/01/14 07:49:20;;;;;;;48.70;26.47;;;2.10;99.90;;;;;;5070076;28;20402;-58
2022/01/14 07:51:46;;;;;;;46.57;26.20;;;0.40;99.90;;;;;;5071626;28;20423;-58
2022/01/14 07:54:11;;;;;;;45.10;26.67;;;0.40;99.90;;;;;;5077140;28;20478;-58
2022/01/14 07:56:41;;;;;;;44.40;25.23;;;0.40;99.90;;;;;;5074863;28;20393;-56
2022/01/14 07:59:07;;;;;;;48.83;25.10;;;0.60;99.90;;;;;;5073380;28;20840;-57
2022/01/14 08:01:35;;;;;;;45.07;25.77;;;0.70;99.90;;;;;;5073367;28;20407;-57
2022/01/14 08:04:03;;;;;;;46.00;23.10;;;0.70;99.90;;;;;;5070874;28;20391;-57
2022/01/14 08:06:32;;;;;;;42.33;23.98;;;0.70;99.90;;;;;;5071571;28;20480;-57
2022/01/14 08:08:57;;;;;;;46.97;24.40;;;0.80;99.90;;;;;;5072517;28;20376;-58
2022/01/14 08:11:23;;;;;;;42.33;24.17;;;1.90;99.90;;;;;;5074509;28;20545;-56
2022/01/14 08:13:49;;;;;;;40.33;24.00;;;0.90;99.90;;;;;;5072130;28;20873;-56
2022/01/14 08:16:14;;;;;;;44.50;24.40;;;2.00;99.90;;;;;;5070868;28;20419;-56
2022/01/14 08:18:40;;;;;;;42.05;24.35;;;1.00;99.90;;;;;;5076617;28;20481;-57
2022/01/14 08:21:06;;;;;;;38.83;22.77;;;1.20;99.90;;;;;;5080289;28;20878;-57
2022/01/14 08:23:31;;;;;;;40.57;23.13;;;1.30;99.90;;;;;;5069988;28;20857;-57
2022/01/14 08:25:57;;;;;;;38.35;22.45;;;1.40;99.90;;;;;;5070261;28;20897;-57
2022/01/14 08:28:24;;;;;;;40.20;23.10;;;3.30;99.90;;;;;;5074843;28;20408;-57
2022/01/14 08:30:50;;;;;;;40.50;22.27;;;1.50;99.90;;;;;;5074993;28;20444;-57
2022/01/14 08:33:17;;;;;;;36.88;21.83;;;1.50;99.90;;;;;;5078051;28;20382;-58
2022/01/14 08:35:43;;;;;;;37.22;20.55;;;1.60;99.90;;;;;;5078998;28;20896;-57
2022/01/14 08:38:09;;;;;;;35.75;20.92;;;1.70;99.90;;;;;;5070222;28;20414;-58
2022/01/14 08:40:34;;;;;;;32.67;18.38;;;1.80;99.90;;;;;;5070258;28;20403;-58
2022/01/14 08:43:00;;;;;;;34.90;18.60;;;2.00;99.90;;;;;;5069928;28;20406;-58
2022/01/14 08:45:26;;;;;;;33.25;19.08;;;2.10;99.90;;;;;;5070676;28;20740;-59
2022/01/14 08:47:54;;;;;;;32.67;17.70;;;2.30;99.90;;;;;;5073550;28;20969;-58
2022/01/14 08:50:35;;;;;;;28.58;16.17;;;2.80;99.90;;;;;;5071886;28;20489;-59
2022/01/14 08:53:02;;;;;;;26.70;15.30;;;4.40;99.90;;;;;;5070105;28;20962;-57
2022/01/14 08:55:28;;;;;;;26.17;16.17;;;5.50;99.90;;;;;;5069798;28;20465;-58
2022/01/14 08:57:54;;;;;;;28.97;15.67;;;7.60;99.90;;;;;;5069221;28;20412;-58
2022/01/14 09:00:22;;;;;;;25.80;15.93;;;8.10;99.90;;;;;;5070815;28;20390;-58
2022/01/14 09:02:48;;;;;;;25.45;15.00;;;9.60;99.90;;;;;;5070476;28;20456;-59
2022/01/14 09:05:14;;;;;;;24.57;15.10;;;10.10;99.90;;;;;;5072207;28;20766;-56
2022/01/14 09:07:40;;;;;;;24.42;15.02;;;10.40;99.90;;;;;;5070705;28;20414;-57
2022/01/14 09:10:08;;;;;;;26.30;15.40;;;11.60;99.30;;;;;;5071504;28;20392;-57
2022/01/14 09:12:34;;;;;;;27.85;21.80;;;;;;;;;;5071960;28;20375;-57
2022/01/14 09:15:01;;;;;;;30.00;22.52;;;11.10;94.60;;;;;;5069948;28;20399;-58
2022/01/14 09:17:28;;;;;;;29.67;22.07;;;9.50;98.10;;;;;;5069511;28;20803;-59
2022/01/14 09:19:54;;;;;;;25.83;22.20;;;10.10;98.50;;;;;;5072298;28;20395;-57
2022/01/14 09:22:20;;;;;;;31.60;28.30;;;;;;;;;;5070774;28;20961;-57
2022/01/14 09:24:47;;;;;;;31.80;28.80;;;13.10;91.80;;;;;;5069315;28;20387;-57
2022/01/14 09:27:16;;;;;;;31.50;28.35;;;12.90;91.90;;;;;;5070561;28;20513;-57
2022/01/14 09:29:43;;;;;;;32.42;29.23;;;12.80;91.90;;;;;;5071844;28;20407;-57
2022/01/14 09:32:10;;;;;;;29.65;26.38;;;11.70;91.30;;;;;;5068104;28;20468;-57
2022/01/14 09:34:36;;;;;;;29.93;26.77;;;11.20;93.30;;;;;;5068950;28;20413;-59
2022/01/14 09:37:02;;;;;;;31.23;28.23;;;12.10;93.20;;;;;;5069272;28;20440;-58
2022/01/14 09:39:31;;;;;;;38.47;34.90;;;13.30;91.20;;;;;;5070335;28;20486;-60
2022/01/14 09:41:57;;;;;;;24.90;17.13;;;14.00;89.40;;;;;;5069799;28;20422;-59
2022/01/14 09:44:22;;;;;;;24.35;17.40;;;14.40;87.40;;;;;;5068524;28;20546;-60
2022/01/14 09:46:49;;;;;;;25.58;19.50;;;15.00;85.30;;;;;;5070480;28;20754;-60
2022/01/14 09:49:15;;;;;;;26.65;16.67;;;15.60;81.50;;;;;;5078881;28;20468;-60
2022/01/14 09:51:41;;;;;;;23.45;17.27;;;15.60;80.10;;;;;;5076996;28;20574;-59
2022/01/14 09:54:10;;;;;;;23.83;16.25;;;15.60;77.00;;;;;;5075841;28;20396;-60
2022/01/14 09:56:36;;;;;;;23.10;16.38;;;15.20;78.60;;;;;;5085602;28;20724;-60
2022/01/14 09:59:03;;;;;;;23.60;15.77;;;15.70;77.10;;;;;;5074294;28;20386;-60
2022/01/14 10:01:36;;;;;;;24.37;15.30;;;15.50;77.40;;;;;;5076231;28;20407;-60
2022/01/14 10:04:02;;;;;;;21.47;14.57;;;15.00;75.20;;;;;;5075408;28;20395;-61
2022/01/14 10:06:40;;;;;;;24.10;15.30;;;13.80;76.80;;;;;;5080557;28;20381;-59
2022/01/14 10:09:13;;;;;;;22.23;13.77;;;13.10;79.50;;;;;;5074362;28;20411;-59
2022/01/14 10:11:44;;;;;;;28.70;26.00;;;12.80;81.10;;;;;;5074004;28;20403;-59
2022/01/14 10:14:15;;;;;;;30.70;27.70;;;12.50;83.60;;;;;;5078048;28;20414;-59
2022/01/14 10:16:41;;;;;;;31.33;28.30;;;12.80;81.90;;;;;;5081036;28;20419;-58
2022/01/14 10:19:44;;;;;;;30.38;27.17;;;12.30;83.30;;;;;;5094881;28;20457;-59
2022/01/14 10:22:25;;;;;;;33.78;30.48;;;12.40;82.90;;;;;;5069921;28;20417;-59
2022/01/14 10:25:01;;;;;;;31.43;28.43;;;12.90;85.00;;;;;;5070525;28;20439;-59
2022/01/14 10:27:59;;;;;;;33.35;30.25;;;12.50;82.00;;;;;;5073715;28;20433;-60
2022/01/14 10:30:33;;;;;;;33.28;30.10;;;12.60;82.50;;;;;;5050657;28;20699;-60
2022/01/14 10:33:01;;;;;;;36.00;32.65;;;12.90;83.70;;;;;;5080982;28;20406;-59
2022/01/14 10:35:38;;;;;;;34.40;31.20;;;13.70;82.10;;;;;;5087029;28;20403;-60
2022/01/14 10:38:06;;;;;;;33.30;30.00;;;13.70;81.20;;;;;;5084180;28;20485;-60
2022/01/14 10:40:36;;;;;;;34.38;31.08;;;13.90;80.60;;;;;;5090373;28;20761;-60
2022/01/14 10:43:04;;;;;;;34.00;30.80;;;13.20;82.40;;;;;;5103665;28;20380;-60
2022/01/14 10:45:30;;;;;;;33.47;30.20;;;13.20;85.30;;;;;;5098274;28;20758;-60
2022/01/14 10:48:06;;;;;;;33.83;30.50;;;13.20;83.00;;;;;;5092688;28;20410;-58
2022/01/14 10:50:45;;;;;;;34.60;31.30;;;13.60;82.40;;;;;;5087470;28;20386;-59
2022/01/14 10:53:22;;;;;;;35.60;32.22;;;13.50;84.20;;;;;;5097090;28;20380;-60
2022/01/14 10:55:49;;;;;;;33.83;30.42;;;13.20;84.60;;;;;;5083058;28;20400;-60
2022/01/14 10:58:26;;;;;;;37.13;33.53;;;13.30;84.00;;;;;;5092280;28;20891;-60
2022/01/14 11:00:56;;;;;;;38.00;34.10;;;12.60;84.90;;;;;;5085220;28;20447;-60
2022/01/14 11:03:42;;;;;;;31.80;28.52;;;12.50;87.20;;;;;;5098239;28;20398;-60
2022/01/14 11:06:18;;;;;;;32.53;29.13;;;12.40;86.70;;;;;;5104473;28;20379;-58
2022/01/14 11:08:45;;;;;;;30.17;26.25;;;11.50;84.80;;;;;;5080719;28;20449;-58
2022/01/14 11:11:12;;;;;;;27.63;23.80;;;13.20;85.90;;;;;;5077101;28;20403;-58
2022/01/14 11:13:38;;;;;;;28.75;25.75;;;12.80;88.20;;;;;;5084967;28;20389;-59
2022/01/14 11:16:04;;;;;;;27.43;22.67;;;12.60;87.20;;;;;;5075237;28;20434;-58
2022/01/14 11:18:30;;;;;;;30.58;24.10;;;12.50;86.10;;;;;;5081659;28;20432;-58
2022/01/14 11:23:40;;;;;;;25.83;20.60;;;12.60;88.20;;;;;;5074266;28;20938;-56
2022/01/14 11:26:15;;;;;;;23.13;20.63;;;13.00;83.60;;;;;;5087151;28;20378;-57
2022/01/14 11:28:42;;;;;;;24.60;19.57;;;13.20;82.80;;;;;;5076070;28;20545;-57
2022/01/14 11:31:28;;;;;;;24.90;20.53;;;13.60;83.80;;;;;;5075168;28;20823;-58
2022/01/14 11:33:55;;;;;;;21.67;18.17;;;12.90;84.40;;;;;;5077766;28;20388;-58
2022/01/14 11:36:22;;;;;;;21.95;19.08;;;12.30;86.10;;;;;;5078340;28;20470;-58
2022/01/14 11:38:48;;;;;;;23.03;18.83;;;12.00;90.50;;;;;;5074926;28;20418;-57
2022/01/14 11:42:09;;;;;;;23.00;17.95;;;11.10;89.30;;;;;;5071923;28;20407;-59
2022/01/14 11:45:03;;;;;;;22.70;17.27;;;10.50;92.00;;;;;;5070478;28;20413;-59
2022/01/14 11:47:40;;;;;;;24.30;17.45;;;10.10;93.00;;;;;;5074621;28;20480;-59
2022/01/14 11:50:21;;;;;;;23.15;16.75;;;9.80;93.10;;;;;;5073640;28;20408;-59
2022/01/14 11:52:49;;;;;;;21.37;15.97;;;9.80;93.50;;;;;;5075147;28;20406;-58
2022/01/14 11:55:26;;;;;;;21.70;13.02;;;9.60;95.50;;;;;;5073872;28;20399;-58
2022/01/14 11:58:14;;;;;;;22.60;13.63;;;9.50;96.60;;;;;;5075148;28;20405;-59
2022/01/14 12:00:42;;;;;;;22.90;13.20;;;9.30;98.20;;;;;;5072215;28;20409;-59
2022/01/14 12:03:09;;;;;;;23.43;13.40;;;8.90;98.10;;;;;;5071781;28;20961;-58
2022/01/14 12:05:50;;;;;;;21.80;13.40;;;9.20;97.80;;;;;;5084736;28;20809;-58
2022/01/14 12:08:19;;;;;;;23.85;14.07;;;9.20;99.30;;;;;;5075024;28;20398;-58
2022/01/14 12:11:00;;;;;;;20.15;12.68;;;9.30;99.20;;;;;;5071267;28;20469;-58
2022/01/14 12:13:39;;;;;;;22.57;12.87;;;9.30;99.40;;;;;;5090522;28;20392;-59
2022/01/14 12:16:36;;;;;;;17.88;11.88;;;9.50;98.60;;;;;;5090137;28;20973;-59
2022/01/14 12:19:02;;;;;;;18.92;12.23;;;9.80;96.60;;;;;;5090325;28;21016;-57
2022/01/14 12:21:43;;;;;;;18.67;12.27;;;9.90;97.60;;;;;;5082118;28;20460;-58
2022/01/14 12:24:14;;;;;;;21.40;13.82;;;9.80;98.00;;;;;;5078484;28;20886;-58
2022/01/14 12:26:53;;;;;;;23.23;14.77;;;9.90;96.80;;;;;;5085738;28;20391;-58
2022/01/14 12:29:35;;;;;;;27.05;15.73;;;8.70;97.00;;;;;;5077332;28;20750;-58
2022/01/14 12:32:21;;;;;;;28.92;17.40;;;10.10;97.00;;;;;;5080300;28;20386;-58
2022/01/14 12:34:56;;;;;;;25.38;16.42;;;10.30;95.70;;;;;;5079173;28;20404;-57
2022/01/14 12:37:49;;;;;;;25.45;16.67;;;10.30;96.00;;;;;;5085503;28;20407;-58
2022/01/14 12:40:21;;;;;;;27.27;17.67;;;10.20;95.80;;;;;;5075436;28;20401;-58
2022/01/14 12:42:58;;;;;;;28.15;17.77;;;10.10;96.20;;;;;;5082574;28;20517;-57
2022/01/14 12:45:35;;;;;;;26.15;17.67;;;10.10;95.80;;;;;;5081047;28;20394;-57
2022/01/14 12:48:18;;;;;;;26.67;16.30;;;9.10;95.20;;;;;;5071025;28;20395;-58
2022/01/14 12:50:46;;;;;;;24.90;16.88;;;10.00;95.30;;;;;;5078445;28;20576;-57
2022/01/14 12:53:17;;;;;;;27.05;15.70;;;9.80;96.40;;;;;;5083337;28;20798;-58
2022/01/14 12:55:43;;;;;;;26.65;16.83;;;10.00;96.20;;;;;;5089191;28;20435;-57
2022/01/14 12:58:10;;;;;;;26.73;16.93;;;10.10;95.80;;;;;;5088155;28;20410;-58
2022/01/14 13:00:36;;;;;;;25.57;16.10;;;10.00;96.70;;;;;;5082302;28;20898;-58
2022/01/14 13:03:08;;;;;;;26.25;17.35;;;9.90;96.10;;;;;;5080438;28;20475;-58
2022/01/14 13:05:34;;;;;;;33.80;17.60;;;9.90;97.80;;;;;;5081403;28;20843;-58
2022/01/14 13:08:00;;;;;;;24.30;15.57;;;9.90;98.00;;;;;;5080757;28;20456;-57
2022/01/14 13:10:25;;;;;;;24.27;15.23;;;10.10;97.30;;;;;;5077545;28;20764;-57